Time;durP1;ratioP1;P1;durP2;ratioP2;P2;SDS_P1;SDS_P2;PMS_P1;PMS_P2;Temp;Humidity;BMP_temperature;BMP_pressure;BME280_temperature;BME280_humidity;BME280_pressure;Samples;Min_cycle;Max_cycle;Signal;HPM_P1;HPM_P2
2023/07/08 05:50:34;;;;;;;;;;;23.80;85.30;;;;;;4997932;28;20829;-80
2023/07/08 05:52:59;;;;;;;;;;;24.20;83.70;;;;;;5024084;28;20796;-80
2023/07/08 05:55:25;;;;;;;;;;;24.90;81.30;;;;;;5017881;28;20431;-80
2023/07/08 05:57:51;;;;;;;;;;;25.10;79.00;;;;;;5018414;28;19917;-80
2023/07/08 06:00:16;;;;;;;;;;;24.80;79.30;;;;;;5019875;28;19925;-80
2023/07/08 06:02:42;;;;;;;;;;;24.10;80.60;;;;;;5023832;28;20629;-80
2023/07/08 06:05:07;;;;;;;;;;;24.90;78.70;;;;;;5024938;28;19924;-81
2023/07/08 06:07:33;;;;;;;;;;;24.90;76.80;;;;;;5017819;28;19937;-78
2023/07/08 06:09:59;;;;;;;;;;;24.90;77.90;;;;;;5023131;28;19920;-81
2023/07/08 06:12:24;;;;;;;;;;;25.20;75.60;;;;;;5024611;28;20410;-81
2023/07/08 06:14:50;;;;;;;;;;;25.80;74.80;;;;;;5023519;28;19917;-80
2023/07/08 06:17:16;;;;;;;;;;;26.00;75.70;;;;;;5024916;28;19935;-80
2023/07/08 06:19:42;;;;;;;;;;;25.80;73.50;;;;;;5005353;28;19951;-80
2023/07/08 06:22:08;;;;;;;;;;;26.20;72.80;;;;;;5009035;28;19917;-81
2023/07/08 06:24:33;;;;;;;;;;;26.70;71.90;;;;;;5021292;28;19924;-80
2023/07/08 06:26:59;;;;;;;;;;;26.60;69.70;;;;;;5004154;28;19924;-80
2023/07/08 06:29:25;;;;;;;;;;;26.60;68.30;;;;;;5021724;28;19916;-84
2023/07/08 06:31:50;;;;;;;;;;;27.00;68.30;;;;;;5008474;28;20776;-85
2023/07/08 06:34:16;;;;;;;;;;;27.90;68.00;;;;;;5007498;28;20582;-80
2023/07/08 06:36:42;;;;;;;;;;;28.40;66.30;;;;;;5024072;28;19921;-82
2023/07/08 06:39:08;;;;;;;;;;;29.00;64.10;;;;;;5023245;28;19921;-81
2023/07/08 06:41:34;;;;;;;;;;;29.10;65.40;;;;;;5007497;28;19933;-83
2023/07/08 06:43:59;;;;;;;;;;;28.90;63.40;;;;;;5021630;28;19947;-84
2023/07/08 06:46:25;;;;;;;;;;;28.80;63.20;;;;;;5024915;28;19921;-84
2023/07/08 06:48:51;;;;;;;;;;;29.70;62.00;;;;;;5024084;28;19917;-84
2023/07/08 06:51:16;;;;;;;;;;;29.60;61.20;;;;;;5025931;28;19935;-82
2023/07/08 06:53:42;;;;;;;;;;;29.40;60.90;;;;;;5023997;28;20654;-85
2023/07/08 06:56:08;;;;;;;;;;;26.30;68.10;;;;;;5022624;28;19940;-81
2023/07/08 06:58:33;;;;;;;;;;;28.30;66.90;;;;;;5024762;28;20494;-84
2023/07/08 07:00:59;;;;;;;;;;;29.90;62.70;;;;;;5023501;28;20000;-83
2023/07/08 07:03:25;;;;;;;;;;;30.60;59.30;;;;;;5007207;28;19917;-81
2023/07/08 07:05:50;;;;;;;;;;;30.50;59.10;;;;;;5025976;28;20292;-83
2023/07/08 07:08:16;;;;;;;;;;;31.20;58.60;;;;;;5026253;28;19917;-83
2023/07/08 07:10:42;;;;;;;;;;;31.30;57.60;;;;;;5022393;28;19928;-83
2023/07/08 07:13:08;;;;;;;;;;;32.20;57.50;;;;;;5022189;28;19917;-83
2023/07/08 07:15:33;;;;;;;;;;;32.10;55.90;;;;;;5019654;28;19967;-83
2023/07/08 07:17:59;;;;;;;;;;;32.50;56.60;;;;;;5024846;28;20499;-84
2023/07/08 07:20:25;;;;;;;;;;;32.40;54.70;;;;;;5022057;28;20207;-84
2023/07/08 07:22:51;;;;;;;;;;;32.90;54.30;;;;;;5024043;28;19932;-82
2023/07/08 07:25:17;;;;;;;;;;;31.80;56.50;;;;;;5023053;28;19920;-83
2023/07/08 07:27:42;;;;;;;;;;;31.80;55.60;;;;;;5020365;28;19921;-82
2023/07/08 07:30:12;;;;;;;;;;;32.40;54.90;;;;;;5032094;28;19917;-84
2023/07/08 07:32:38;;;;;;;;;;;32.40;55.20;;;;;;5024295;28;20047;-86
2023/07/08 07:35:06;;;;;;;;;;;32.20;54.50;;;;;;5004764;28;21663;-83
2023/07/08 07:37:31;;;;;;;;;;;32.50;54.00;;;;;;5030542;28;19921;-83
2023/07/08 07:39:57;;;;;;;;;;;32.80;53.60;;;;;;5012529;28;20012;-79
2023/07/08 07:42:22;;;;;;;;;;;33.20;53.00;;;;;;5026577;28;20047;-80
2023/07/08 07:44:48;;;;;;;;;;;33.20;52.20;;;;;;5015838;28;19917;-80
2023/07/08 07:47:14;;;;;;;;;;;33.00;52.60;;;;;;5024565;28;19921;-80
2023/07/08 07:49:39;;;;;;;;;;;33.40;52.30;;;;;;5023066;28;19928;-80
2023/07/08 07:52:05;;;;;;;;;;;34.20;49.90;;;;;;5024052;28;20020;-79
2023/07/08 07:54:31;;;;;;;;;;;35.30;50.30;;;;;;5007499;28;19924;-80
2023/07/08 07:56:56;;;;;;;;;;;35.40;48.90;;;;;;5026569;28;20698;-80
2023/07/08 07:59:22;;;;;;;;;;;35.30;48.10;;;;;;5007187;28;19925;-80
2023/07/08 08:01:47;;;;;;;;;;;36.50;48.10;;;;;;5005940;28;20376;-80
2023/07/08 08:04:13;;;;;;;;;;;37.00;48.00;;;;;;5007487;28;19947;-80
2023/07/08 08:06:39;;;;;;;;;;;37.70;46.70;;;;;;5040439;28;19920;-80
2023/07/08 08:09:06;;;;;;;;;;;38.70;48.50;;;;;;5019412;28;19917;-80
2023/07/08 08:11:31;;;;;;;;;;;38.10;45.60;;;;;;5023613;28;20331;-80
2023/07/08 08:13:57;;;;;;;;;;;38.50;44.90;;;;;;5028481;28;20413;-79
2023/07/08 08:16:23;;;;;;;;;;;38.50;45.90;;;;;;5007332;28;19952;-80
2023/07/08 08:18:48;;;;;;;;;;;38.60;43.80;;;;;;5000544;28;19917;-80
2023/07/08 08:21:14;;;;;;;;;;;39.80;46.70;;;;;;5023516;28;19964;-80
2023/07/08 08:23:40;;;;;;;;;;;39.90;43.70;;;;;;5022903;28;20021;-82
2023/07/08 08:26:05;;;;;;;;;;;39.90;44.70;;;;;;5028110;28;19982;-81
2023/07/08 08:28:31;;;;;;;;;;;40.30;44.00;;;;;;5034783;28;19920;-81
2023/07/08 08:30:56;;;;;;;;;;;40.10;44.00;;;;;;5021903;28;20003;-81
2023/07/08 08:33:22;;;;;;;;;;;39.50;43.20;;;;;;5005931;28;19921;-81
2023/07/08 08:35:47;;;;;;;;;;;39.40;47.30;;;;;;5026187;28;19920;-82
2023/07/08 08:38:13;;;;;;;;;;;39.80;44.10;;;;;;5021702;28;19947;-82
2023/07/08 08:40:39;;;;;;;;;;;40.60;43.30;;;;;;5026935;28;20465;-81
2023/07/08 08:43:06;;;;;;;;;;;40.70;43.40;;;;;;5015337;28;19916;-83
2023/07/08 08:45:35;;;;;;;;;;;40.10;42.40;;;;;;5023979;28;20024;-86
2023/07/08 08:48:03;;;;;;;;;;;40.60;42.60;;;;;;5032354;28;19921;-84
2023/07/08 08:50:47;;;;;;;;;;;40.80;41.30;;;;;;5006884;28;19933;-82
2023/07/08 08:53:14;;;;;;;;;;;40.20;41.70;;;;;;5019613;28;19921;-82
2023/07/08 08:55:40;;;;;;;;;;;40.90;41.10;;;;;;5011916;28;20338;-82
2023/07/08 08:58:15;;;;;;;;;;;41.50;40.50;;;;;;5024986;28;20344;-82
2023/07/08 09:00:54;;;;;;;;;;;40.70;42.00;;;;;;5029567;28;19925;-83
2023/07/08 09:03:46;;;;;;;;;;;41.50;39.80;;;;;;5039241;28;19913;-82
2023/07/08 09:06:12;;;;;;;;;;;42.30;39.00;;;;;;5007342;28;19936;-86
2023/07/08 09:08:37;;;;;;;;;;;42.30;38.50;;;;;;5022510;28;19935;-83
2023/07/08 09:11:22;;;;;;;;;;;40.00;40.90;;;;;;5036256;28;19960;-83
2023/07/08 09:13:48;;;;;;;;;;;41.20;41.90;;;;;;5028984;28;19920;-83
2023/07/08 09:16:17;;;;;;;;;;;42.10;37.90;;;;;;5007296;28;19913;-83
2023/07/08 09:18:50;;;;;;;;;;;42.90;38.10;;;;;;5022624;28;19921;-83
2023/07/08 09:21:19;;;;;;;;;;;42.60;37.10;;;;;;5023034;28;19913;-83
2023/07/08 09:23:47;;;;;;;;;;;41.80;38.40;;;;;;5029205;28;20450;-82
2023/07/08 09:26:15;;;;;;;;;;;40.70;39.30;;;;;;5026032;28;20019;-84
2023/07/08 09:28:42;;;;;;;;;;;42.20;39.70;;;;;;5022659;28;19913;-83
2023/07/08 09:31:22;;;;;;;;;;;42.20;41.00;;;;;;5004301;28;19925;-83
2023/07/08 09:33:50;;;;;;;;;;;42.20;37.50;;;;;;5003675;28;19964;-84
2023/07/08 09:36:18;;;;;;;;;;;40.60;41.70;;;;;;5020789;28;19923;-83
2023/07/08 09:38:46;;;;;;;;;;;41.80;40.20;;;;;;5022337;28;20012;-83
2023/07/08 09:41:12;;;;;;;;;;;43.00;41.30;;;;;;5025501;28;19921;-83
2023/07/08 09:43:38;;;;;;;;;;;42.70;39.80;;;;;;5009931;28;19920;-83
2023/07/08 09:46:03;;;;;;;;;;;43.00;37.80;;;;;;5015118;28;20378;-83
2023/07/08 09:48:32;;;;;;;;;;;43.60;38.60;;;;;;5021946;28;20451;-82
2023/07/08 09:50:58;;;;;;;;;;;43.00;38.30;;;;;;5026210;28;19975;-82
2023/07/08 09:53:24;;;;;;;;;;;42.50;40.10;;;;;;5004497;28;20515;-82
2023/07/08 09:55:50;;;;;;;;;;;42.40;40.00;;;;;;5005729;28;19920;-82
2023/07/08 09:58:37;;;;;;;;;;;43.40;38.70;;;;;;5004810;28;19924;-83
2023/07/08 10:01:13;;;;;;;;;;;43.00;37.00;;;;;;5021658;28;19929;-83
2023/07/08 10:03:39;;;;;;;;;;;41.10;40.10;;;;;;5025253;28;19913;-83
2023/07/08 10:06:32;;;;;;;;;;;42.60;39.80;;;;;;5020630;28;20180;-84
2023/07/08 10:09:19;;;;;;;;;;;41.50;39.90;;;;;;5003854;28;20465;-83
2023/07/08 10:11:52;;;;;;;;;;;42.20;40.00;;;;;;5030553;28;20418;-83
2023/07/08 10:14:24;;;;;;;;;;;42.90;37.80;;;;;;4996914;28;20386;-84
2023/07/08 10:16:49;;;;;;;;;;;42.60;37.30;;;;;;5025858;28;19924;-83
2023/07/08 10:19:16;;;;;;;;;;;43.20;37.00;;;;;;5027485;28;19925;-82
2023/07/08 10:21:51;;;;;;;;;;;43.30;37.20;;;;;;5026255;28;19920;-83
2023/07/08 10:24:16;;;;;;;;;;;42.20;37.80;;;;;;5000063;28;19959;-83
2023/07/08 10:26:43;;;;;;;;;;;41.90;40.00;;;;;;5018243;28;19932;-83
2023/07/08 10:29:21;;;;;;;;;;;41.60;39.70;;;;;;5016200;28;19923;-83
2023/07/08 10:32:09;;;;;;;;;;;42.00;39.20;;;;;;5026421;28;19919;-83
2023/07/08 10:34:41;;;;;;;;;;;42.40;40.50;;;;;;5013000;28;19928;-83
2023/07/08 10:37:30;;;;;;;;;;;42.70;36.30;;;;;;5019076;28;19913;-83
2023/07/08 10:40:08;;;;;;;;;;;42.60;38.40;;;;;;4982720;28;20606;-82
2023/07/08 10:42:49;;;;;;;;;;;42.20;37.20;;;;;;5036370;28;19917;-83
2023/07/08 10:45:24;;;;;;;;;;;42.40;37.70;;;;;;5035341;28;19994;-81
2023/07/08 10:48:09;;;;;;;;;;;42.00;38.80;;;;;;5025112;28;19935;-79
2023/07/08 10:50:43;;;;;;;;;;;40.50;42.00;;;;;;5021754;28;20064;-83
2023/07/08 10:53:08;;;;;;;;;;;38.20;42.30;;;;;;5023570;28;20004;-84
2023/07/08 10:55:52;;;;;;;;;;;36.80;45.00;;;;;;5028750;28;20040;-85
2023/07/08 10:58:47;;;;;;;;;;;36.20;46.30;;;;;;5022721;28;19917;-83
2023/07/08 11:01:20;;;;;;;;;;;35.00;47.10;;;;;;4950645;28;20013;-84
2023/07/08 11:03:59;;;;;;;;;;;34.50;52.10;;;;;;5005843;28;20450;-83
2023/07/08 11:06:38;;;;;;;;;;;34.20;52.40;;;;;;5031490;28;19923;-83
2023/07/08 11:09:05;;;;;;;;;;;33.70;50.30;;;;;;5027965;28;19986;-84
2023/07/08 11:11:31;;;;;;;;;;;33.90;52.20;;;;;;5005855;28;19917;-84
2023/07/08 11:14:03;;;;;;;;;;;34.00;52.40;;;;;;5028654;28;20460;-84
2023/07/08 11:16:32;;;;;;;;;;;34.00;51.00;;;;;;5006486;28;20024;-83
2023/07/08 11:19:06;;;;;;;;;;;34.00;53.10;;;;;;5021206;28;20697;-83
2023/07/08 11:21:35;;;;;;;;;;;34.40;54.50;;;;;;5022015;28;19921;-83
2023/07/08 11:24:04;;;;;;;;;;;34.00;51.20;;;;;;5023860;28;20526;-83
2023/07/08 11:26:50;;;;;;;;;;;34.00;50.40;;;;;;5024074;28;20275;-84
2023/07/08 11:29:22;;;;;;;;;;;33.50;52.20;;;;;;5018252;28;19917;-82
2023/07/08 11:31:48;;;;;;;;;;;33.40;50.90;;;;;;5020906;28;20468;-83
2023/07/08 11:34:15;;;;;;;;;;;33.40;53.10;;;;;;5023895;28;19921;-82
2023/07/08 11:36:43;;;;;;;;;;;33.30;50.10;;;;;;5019588;28;19917;-84
2023/07/08 11:39:26;;;;;;;;;;;33.00;50.80;;;;;;5023346;28;19921;-84
2023/07/08 11:41:52;;;;;;;;;;;32.80;53.90;;;;;;5029887;28;20006;-84
2023/07/08 11:44:18;;;;;;;;;;;32.70;53.20;;;;;;5004479;28;19917;-84
2023/07/08 11:46:53;;;;;;;;;;;32.20;55.40;;;;;;5006469;28;20380;-84
2023/07/08 11:49:19;;;;;;;;;;;32.30;54.80;;;;;;5023653;28;19925;-86
2023/07/08 11:51:46;;;;;;;;;;;32.30;54.60;;;;;;5024590;28;19924;-88
2023/07/08 11:54:21;;;;;;;;;;;32.30;53.70;;;;;;5024138;28;19936;-85
2023/07/08 11:56:47;;;;;;;;;;;32.30;55.80;;;;;;5023498;28;19964;-84
2023/07/08 11:59:18;;;;;;;;;;;32.00;57.80;;;;;;5021250;28;19936;-83
2023/07/08 12:01:51;;;;;;;;;;;32.10;57.70;;;;;;5009232;28;19925;-82
2023/07/08 12:04:33;;;;;;;;;;;32.50;57.50;;;;;;5005215;28;19917;-83
2023/07/08 12:07:05;;;;;;;;;;;32.20;53.70;;;;;;5017718;28;19917;-85
2023/07/08 12:09:35;;;;;;;;;;;32.20;52.30;;;;;;5025987;28;19916;-84
2023/07/08 12:12:02;;;;;;;;;;;31.80;53.70;;;;;;5024033;28;19917;-81
2023/07/08 12:14:28;;;;;;;;;;;32.20;51.80;;;;;;5019292;28;19962;-83
2023/07/08 12:16:54;;;;;;;;;;;31.90;52.60;;;;;;5027318;28;19920;-81
2023/07/08 12:19:21;;;;;;;;;;;31.70;52.90;;;;;;5017430;28;19925;-84
2023/07/08 12:21:46;;;;;;;;;;;31.60;55.00;;;;;;5023874;28;19917;-80
2023/07/08 12:24:13;;;;;;;;;;;31.70;55.30;;;;;;5024272;28;19921;-81
2023/07/08 12:26:39;;;;;;;;;;;31.70;53.80;;;;;;5023834;28;20462;-79
2023/07/08 12:29:05;;;;;;;;;;;31.70;53.60;;;;;;5009630;28;19921;-83
2023/07/08 12:31:31;;;;;;;;;;;31.30;54.80;;;;;;5023288;28;19917;-84
2023/07/08 12:33:57;;;;;;;;;;;31.70;53.30;;;;;;5002179;28;19928;-81
2023/07/08 12:36:25;;;;;;;;;;;31.70;54.40;;;;;;5026266;28;19921;-81
2023/07/08 12:38:52;;;;;;;;;;;31.40;54.80;;;;;;5026070;28;20002;-82
2023/07/08 12:41:18;;;;;;;;;;;31.70;59.60;;;;;;5024474;28;19924;-85
2023/07/08 12:43:45;;;;;;;;;;;31.70;60.30;;;;;;5020058;28;19979;-83
2023/07/08 12:46:11;;;;;;;;;;;31.60;57.10;;;;;;5024738;28;19921;-82
2023/07/08 12:48:37;;;;;;;;;;;31.30;56.80;;;;;;5000923;28;19953;-82
2023/07/08 12:51:03;;;;;;;;;;;31.40;57.80;;;;;;5021764;28;19929;-81
2023/07/08 12:53:31;;;;;;;;;;;31.60;57.70;;;;;;5004893;28;19917;-81
2023/07/08 12:55:58;;;;;;;;;;;31.30;56.50;;;;;;5025277;28;20486;-81
2023/07/08 12:58:25;;;;;;;;;;;31.60;55.10;;;;;;5018254;28;20656;-83
2023/07/08 13:00:51;;;;;;;;;;;31.60;56.60;;;;;;5005304;28;19932;-83
2023/07/08 13:03:18;;;;;;;;;;;31.50;54.40;;;;;;5022711;28;19913;-82
2023/07/08 13:05:44;;;;;;;;;;;31.20;56.00;;;;;;5022680;28;19917;-78
2023/07/08 13:08:18;;;;;;;;;;;31.30;58.00;;;;;;5023503;28;20463;-83
2023/07/08 13:10:44;;;;;;;;;;;31.40;54.70;;;;;;5026980;28;19955;-83
2023/07/08 13:13:15;;;;;;;;;;;31.20;57.80;;;;;;5025543;28;19953;-80
2023/07/08 13:15:42;;;;;;;;;;;31.10;58.50;;;;;;5022306;28;20609;-79
2023/07/08 13:18:18;;;;;;;;;;;31.10;55.80;;;;;;5024667;28;19999;-83
2023/07/08 13:20:52;;;;;;;;;;;31.00;53.50;;;;;;5009998;28;19925;-81
2023/07/08 13:23:19;;;;;;;;;;;31.20;56.70;;;;;;5026872;28;19960;-82
2023/07/08 13:25:47;;;;;;;;;;;31.00;61.30;;;;;;5030765;28;20407;-77
2023/07/08 13:28:18;;;;;;;;;;;31.10;61.40;;;;;;5004265;28;19921;-81
2023/07/08 13:30:54;;;;;;;;;;;31.00;60.20;;;;;;5003875;28;20057;-83
2023/07/08 13:33:20;;;;;;;;;;;31.10;63.20;;;;;;5003715;28;19928;-78
2023/07/08 13:35:46;;;;;;;;;;;30.90;60.80;;;;;;5008774;28;19923;-81
2023/07/08 13:38:17;;;;;;;;;;;30.90;60.40;;;;;;5022479;28;19917;-80
2023/07/08 13:40:51;;;;;;;;;;;31.00;60.40;;;;;;5006761;28;19936;-82
2023/07/08 13:43:22;;;;;;;;;;;31.10;62.60;;;;;;5004824;28;20528;-81
2023/07/08 13:45:48;;;;;;;;;;;31.00;61.60;;;;;;5013557;28;19920;-79
2023/07/08 13:48:26;;;;;;;;;;;31.00;62.80;;;;;;5024270;28;19932;-81
2023/07/08 13:50:52;;;;;;;;;;;30.90;60.60;;;;;;5007107;28;19925;-81
2023/07/08 13:53:33;;;;;;;;;;;30.80;58.70;;;;;;5022297;28;19923;-82
2023/07/08 13:56:03;;;;;;;;;;;30.70;58.90;;;;;;5021735;28;19928;-82
2023/07/08 13:58:29;;;;;;;;;;;30.50;57.80;;;;;;5020763;28;20785;-82
2023/07/08 14:00:55;;;;;;;;;;;30.70;61.10;;;;;;5026205;28;19933;-80
2023/07/08 14:03:20;;;;;;;;;;;30.80;59.80;;;;;;5029103;28;19917;-80
2023/07/08 14:05:46;;;;;;;;;;;30.60;56.90;;;;;;5021043;28;19917;-80
2023/07/08 14:08:16;;;;;;;;;;;30.60;57.50;;;;;;5010216;28;20663;-80
2023/07/08 14:10:41;;;;;;;;;;;30.70;58.70;;;;;;5018222;28;19917;-80
2023/07/08 14:13:07;;;;;;;;;;;30.70;62.60;;;;;;5021563;28;19932;-79
2023/07/08 14:15:33;;;;;;;;;;;30.60;62.70;;;;;;5004226;28;20426;-80
2023/07/08 14:18:01;;;;;;;;;;;30.70;59.90;;;;;;5023630;28;19917;-81
2023/07/08 14:20:29;;;;;;;;;;;30.60;61.00;;;;;;5026279;28;19921;-80
2023/07/08 14:22:55;;;;;;;;;;;30.60;62.30;;;;;;5007622;28;20826;-80
2023/07/08 14:25:20;;;;;;;;;;;30.50;60.90;;;;;;5022895;28;20028;-81
2023/07/08 14:27:46;;;;;;;;;;;30.40;60.10;;;;;;5021768;28;19917;-81
2023/07/08 14:30:12;;;;;;;;;;;30.40;60.80;;;;;;5024178;28;20712;-79
2023/07/08 14:32:38;;;;;;;;;;;30.40;59.20;;;;;;5001323;28;20008;-81
2023/07/08 14:35:18;;;;;;;;;;;30.40;60.60;;;;;;5023550;28;20243;-81
2023/07/08 14:37:44;;;;;;;;;;;30.40;59.90;;;;;;5015396;28;20031;-80
2023/07/08 14:40:19;;;;;;;;;;;30.40;59.30;;;;;;5005154;28;20346;-80
2023/07/08 14:42:44;;;;;;;;;;;30.40;59.60;;;;;;5019326;28;19924;-79
2023/07/08 14:45:10;;;;;;;;;;;30.30;58.10;;;;;;5022548;28;19917;-79
2023/07/08 14:47:36;;;;;;;;;;;30.30;57.60;;;;;;5021863;28;19929;-78
2023/07/08 14:50:10;;;;;;;;;;;30.30;57.80;;;;;;5023125;28;20313;-80
2023/07/08 14:52:36;;;;;;;;;;;30.30;57.80;;;;;;5023320;28;19917;-79
2023/07/08 14:55:01;;;;;;;;;;;30.20;61.40;;;;;;5030108;28;19916;-79
2023/07/08 14:57:30;;;;;;;;;;;30.30;61.80;;;;;;5024978;28;19917;-79
2023/07/08 14:59:55;;;;;;;;;;;30.30;58.90;;;;;;5023886;28;20311;-81
2023/07/08 15:02:21;;;;;;;;;;;30.30;60.10;;;;;;5010022;28;19939;-81
2023/07/08 15:04:47;;;;;;;;;;;30.30;59.30;;;;;;5028308;28;19956;-81
2023/07/08 15:07:13;;;;;;;;;;;30.30;63.50;;;;;;5001559;28;20007;-79
2023/07/08 15:09:38;;;;;;;;;;;30.30;62.40;;;;;;5024662;28;19925;-80
2023/07/08 15:12:04;;;;;;;;;;;30.20;60.60;;;;;;5005179;28;20004;-79
2023/07/08 15:14:30;;;;;;;;;;;30.10;59.30;;;;;;5025178;28;19947;-80
2023/07/08 15:16:55;;;;;;;;;;;30.10;58.70;;;;;;5012930;28;19971;-83
2023/07/08 15:19:22;;;;;;;;;;;30.10;62.10;;;;;;5023906;28;20449;-80
2023/07/08 15:21:47;;;;;;;;;;;30.20;65.00;;;;;;5006958;28;20347;-80
2023/07/08 15:24:13;;;;;;;;;;;30.20;64.80;;;;;;5013488;28;19930;-81
2023/07/08 15:26:40;;;;;;;;;;;30.10;65.30;;;;;;5031351;28;19973;-81
2023/07/08 15:29:11;;;;;;;;;;;30.20;64.70;;;;;;5035585;28;20058;-80
2023/07/08 15:31:37;;;;;;;;;;;30.10;65.80;;;;;;5026393;28;19917;-82
2023/07/08 15:34:04;;;;;;;;;;;30.10;67.10;;;;;;5007746;28;19921;-80
2023/07/08 15:36:30;;;;;;;;;;;30.00;66.30;;;;;;5006419;28;19917;-80
2023/07/08 15:38:56;;;;;;;;;;;30.20;63.30;;;;;;5027837;28;19972;-81
2023/07/08 15:41:23;;;;;;;;;;;30.30;64.40;;;;;;5005009;28;19923;-79
2023/07/08 15:43:49;;;;;;;;;;;30.20;66.00;;;;;;5025721;28;20410;-80
2023/07/08 15:46:15;;;;;;;;;;;30.20;66.80;;;;;;5030067;28;19917;-80
2023/07/08 15:48:43;;;;;;;;;;;30.10;67.40;;;;;;5008053;28;19921;-78
2023/07/08 15:51:15;;;;;;;;;;;30.10;65.30;;;;;;5011969;28;19925;-83
2023/07/08 15:53:41;;;;;;;;;;;30.10;64.90;;;;;;5020512;28;19922;-82
2023/07/08 15:56:15;;;;;;;;;;;30.20;66.30;;;;;;5031239;28;20353;-81
2023/07/08 15:58:41;;;;;;;;;;;30.20;63.50;;;;;;5006304;28;19924;-83
2023/07/08 16:01:09;;;;;;;;;;;30.20;63.40;;;;;;5022257;28;20467;-81
2023/07/08 16:03:36;;;;;;;;;;;30.10;65.30;;;;;;5020756;28;19920;-82
2023/07/08 16:06:02;;;;;;;;;;;30.10;64.10;;;;;;5027172;28;19917;-81
2023/07/08 16:08:27;;;;;;;;;;;30.00;61.10;;;;;;5026799;28;20265;-82
2023/07/08 16:10:57;;;;;;;;;;;29.90;60.50;;;;;;5025233;28;19921;-82
2023/07/08 16:13:25;;;;;;;;;;;30.00;60.00;;;;;;5022910;28;19917;-81
2023/07/08 16:15:50;;;;;;;;;;;29.90;60.60;;;;;;5022196;28;19971;-82
2023/07/08 16:18:16;;;;;;;;;;;29.80;64.40;;;;;;5025233;28;19956;-82
2023/07/08 16:20:42;;;;;;;;;;;30.00;67.30;;;;;;5020323;28;19987;-83
2023/07/08 16:23:07;;;;;;;;;;;29.90;68.70;;;;;;5036071;28;19967;-82
2023/07/08 16:25:35;;;;;;;;;;;29.90;65.10;;;;;;5031751;28;20483;-82
2023/07/08 16:28:01;;;;;;;;;;;29.90;67.10;;;;;;5014430;28;19913;-81
2023/07/08 16:30:27;;;;;;;;;;;29.80;69.30;;;;;;5026712;28;20276;-83
2023/07/08 16:32:53;;;;;;;;;;;29.80;67.70;;;;;;5026782;28;19913;-78
2023/07/08 16:35:19;;;;;;;;;;;29.70;65.10;;;;;;5020274;28;19913;-82
2023/07/08 16:37:50;;;;;;;;;;;29.70;65.90;;;;;;5044160;28;20390;-80
2023/07/08 16:40:17;;;;;;;;;;;29.70;65.90;;;;;;5017474;28;19925;-82
2023/07/08 16:42:44;;;;;;;;;;;29.60;64.00;;;;;;5008657;28;19921;-82
2023/07/08 16:45:13;;;;;;;;;;;29.70;64.00;;;;;;5017713;28;20047;-81
2023/07/08 16:47:39;;;;;;;;;;;29.60;64.70;;;;;;5000601;28;20474;-81
2023/07/08 16:50:05;;;;;;;;;;;29.60;63.30;;;;;;5009298;28;19929;-81
2023/07/08 16:52:31;;;;;;;;;;;29.50;65.10;;;;;;5026821;28;20725;-81
2023/07/08 16:54:57;;;;;;;;;;;29.50;66.50;;;;;;5007416;28;20402;-81
2023/07/08 16:57:23;;;;;;;;;;;29.50;65.40;;;;;;5004487;28;19978;-83
2023/07/08 16:59:49;;;;;;;;;;;29.40;66.80;;;;;;5003017;28;20028;-82
2023/07/08 17:02:15;;;;;;;;;;;29.40;67.30;;;;;;5018626;28;19913;-83
2023/07/08 17:04:42;;;;;;;;;;;29.30;69.70;;;;;;5019070;28;19979;-82
2023/07/08 17:07:09;;;;;;;;;;;29.30;70.30;;;;;;5008078;28;19917;-83
2023/07/08 17:09:34;;;;;;;;;;;29.30;70.50;;;;;;5014903;28;19967;-81
2023/07/08 17:12:00;;;;;;;;;;;29.30;70.10;;;;;;4996938;28;19931;-83
2023/07/08 17:14:25;;;;;;;;;;;29.30;68.70;;;;;;4987444;28;20900;-81
2023/07/08 17:16:51;;;;;;;;;;;29.30;70.60;;;;;;5007337;28;19917;-81
2023/07/08 17:19:17;;;;;;;;;;;29.20;70.20;;;;;;5013375;28;19960;-81
2023/07/08 17:21:42;;;;;;;;;;;29.20;71.00;;;;;;4998504;28;20687;-82
2023/07/08 17:24:10;;;;;;;;;;;29.20;70.30;;;;;;5013346;28;19917;-81
2023/07/08 17:26:37;;;;;;;;;;;29.20;70.80;;;;;;5006131;28;19920;-81
2023/07/08 17:29:02;;;;;;;;;;;29.10;70.40;;;;;;5008036;28;20478;-81
2023/07/08 17:31:28;;;;;;;;;;;29.10;69.00;;;;;;5007018;28;20011;-81
2023/07/08 17:33:57;;;;;;;;;;;29.10;70.00;;;;;;4998678;28;19921;-81
2023/07/08 17:36:26;;;;;;;;;;;29.00;72.00;;;;;;5006466;28;20011;-81
2023/07/08 17:38:52;;;;;;;;;;;29.00;72.10;;;;;;4986430;28;19951;-80
2023/07/08 17:41:19;;;;;;;;;;;29.00;71.40;;;;;;4997194;28;20082;-81
2023/07/08 17:43:46;;;;;;;;;;;29.00;70.80;;;;;;5019853;28;19932;-81
2023/07/08 17:46:13;;;;;;;;;;;28.90;71.30;;;;;;5003576;28;19917;-81
2023/07/08 17:48:39;;;;;;;;;;;28.90;71.90;;;;;;5021199;28;19931;-81
2023/07/08 17:51:05;;;;;;;;;;;28.80;71.40;;;;;;5001725;28;19925;-80
2023/07/08 17:53:31;;;;;;;;;;;28.80;72.10;;;;;;5002116;28;19916;-82
2023/07/08 17:55:57;;;;;;;;;;;28.70;71.50;;;;;;5014042;28;19917;-82
2023/07/08 17:58:23;;;;;;;;;;;28.70;72.40;;;;;;5003613;28;19925;-80
2023/07/08 18:00:49;;;;;;;;;;;28.70;72.00;;;;;;4997424;28;19929;-81
2023/07/08 18:03:14;;;;;;;;;;;28.80;72.80;;;;;;5021809;28;19913;-81
2023/07/08 18:05:40;;;;;;;;;;;28.70;74.20;;;;;;5027803;28;20470;-81
2023/07/08 18:08:06;;;;;;;;;;;28.70;74.80;;;;;;5009885;28;19913;-82
2023/07/08 18:10:32;;;;;;;;;;;28.60;74.50;;;;;;5027284;28;19947;-81
2023/07/08 18:12:58;;;;;;;;;;;28.50;73.10;;;;;;5037363;28;20020;-81
2023/07/08 18:15:25;;;;;;;;;;;28.60;73.00;;;;;;5002591;28;19925;-80
2023/07/08 18:17:52;;;;;;;;;;;28.60;72.20;;;;;;5002071;28;19917;-81
2023/07/08 18:20:18;;;;;;;;;;;28.60;71.40;;;;;;5019186;28;20004;-81
2023/07/08 18:22:46;;;;;;;;;;;28.60;74.30;;;;;;5004370;28;19959;-81
2023/07/08 18:25:13;;;;;;;;;;;28.60;76.80;;;;;;5026472;28;19917;-80
2023/07/08 18:27:39;;;;;;;;;;;28.60;78.90;;;;;;5023709;28;19919;-81
2023/07/08 18:30:05;;;;;;;;;;;28.60;78.40;;;;;;5029882;28;19917;-80
2023/07/08 18:32:30;;;;;;;;;;;28.70;76.20;;;;;;5033019;28;19996;-79
2023/07/08 18:34:56;;;;;;;;;;;28.60;75.50;;;;;;5027103;28;20434;-81
2023/07/08 18:37:21;;;;;;;;;;;28.60;75.20;;;;;;5028405;28;19922;-80
2023/07/08 18:39:47;;;;;;;;;;;28.50;75.50;;;;;;5033124;28;19932;-80
2023/07/08 18:42:12;;;;;;;;;;;28.30;77.00;;;;;;5027752;28;19917;-80
2023/07/08 18:44:38;;;;;;;;;;;28.30;75.70;;;;;;5022130;28;19928;-80
2023/07/08 18:47:04;;;;;;;;;;;28.20;76.40;;;;;;5031875;28;19918;-81
2023/07/08 18:49:31;;;;;;;;;;;28.20;76.20;;;;;;5021364;28;19933;-81
2023/07/08 18:51:56;;;;;;;;;;;28.00;76.60;;;;;;5010157;28;19949;-80
2023/07/08 18:54:22;;;;;;;;;;;28.00;76.40;;;;;;5002945;28;20028;-80
2023/07/08 18:56:48;;;;;;;;;;;28.00;76.60;;;;;;5002804;28;19924;-80
2023/07/08 18:59:14;;;;;;;;;;;28.00;76.70;;;;;;5003892;28;19932;-81
2023/07/08 19:01:40;;;;;;;;;;;27.90;76.10;;;;;;5014098;28;19929;-80
2023/07/08 19:04:09;;;;;;;;;;;27.90;76.20;;;;;;5021390;28;19913;-81
2023/07/08 19:06:35;;;;;;;;;;;27.90;76.70;;;;;;5018258;28;19921;-82
2023/07/08 19:09:00;;;;;;;;;;;27.80;76.80;;;;;;5016071;28;19921;-81
2023/07/08 19:11:28;;;;;;;;;;;27.70;76.70;;;;;;5007082;28;19925;-82
2023/07/08 19:13:54;;;;;;;;;;;27.60;76.80;;;;;;5012879;28;19925;-82
2023/07/08 19:16:21;;;;;;;;;;;27.50;76.50;;;;;;5016556;28;19913;-81
2023/07/08 19:18:50;;;;;;;;;;;27.30;76.10;;;;;;5017305;28;19913;-80
2023/07/08 19:21:16;;;;;;;;;;;27.30;75.60;;;;;;5009265;28;19928;-79
2023/07/08 19:23:44;;;;;;;;;;;27.30;75.20;;;;;;5021191;28;19980;-79
2023/07/08 19:26:14;;;;;;;;;;;27.20;75.20;;;;;;5004991;28;19921;-79
2023/07/08 19:28:40;;;;;;;;;;;27.20;75.40;;;;;;5001588;28;19969;-79
2023/07/08 19:31:15;;;;;;;;;;;27.20;75.10;;;;;;5010047;28;20763;-80
2023/07/08 19:33:41;;;;;;;;;;;27.10;75.20;;;;;;5011644;28;19917;-81
2023/07/08 19:36:07;;;;;;;;;;;27.00;75.70;;;;;;5003805;28;20281;-81
2023/07/08 19:38:32;;;;;;;;;;;26.90;76.10;;;;;;5005266;28;19921;-82
2023/07/08 19:40:58;;;;;;;;;;;26.90;75.90;;;;;;5002862;28;19925;-79
2023/07/08 19:43:23;;;;;;;;;;;26.80;76.10;;;;;;4997277;28;19924;-80
2023/07/08 19:45:49;;;;;;;;;;;26.80;76.40;;;;;;4993781;28;20240;-79
2023/07/08 19:48:15;;;;;;;;;;;26.70;76.10;;;;;;5000734;28;19999;-81
2023/07/08 19:50:40;;;;;;;;;;;26.90;75.30;;;;;;5002028;28;19925;-81
2023/07/08 19:53:06;;;;;;;;;;;27.00;74.80;;;;;;4998257;28;19913;-81
2023/07/08 19:55:33;;;;;;;;;;;27.00;75.20;;;;;;5001368;28;19924;-81
2023/07/08 19:57:59;;;;;;;;;;;26.90;76.00;;;;;;5001545;28;20395;-82
2023/07/08 20:00:38;;;;;;;;;;;27.10;74.00;;;;;;5003311;28;19932;-81
2023/07/08 20:03:04;;;;;;;;;;;27.10;74.20;;;;;;5003268;28;19921;-81
2023/07/08 20:05:34;;;;;;;;;;;27.00;73.40;;;;;;5006745;28;19972;-81
2023/07/08 20:08:04;;;;;;;;;;;27.00;74.50;;;;;;5009350;28;19917;-80
2023/07/08 20:10:29;;;;;;;;;;;27.00;76.50;;;;;;5000988;28;19993;-80